sensor_id;sensor_type;location;lat;lon;timestamp;P1;durP1;ratioP1;P2;durP2;ratioP2
19554;SDS011;9924;50.828;6.440;2023-10-19T00:00:37;12.52;;;7.43;;
19554;SDS011;9924;50.828;6.440;2023-10-19T00:03:10;8.27;;;6.78;;
19554;SDS011;9924;50.828;6.440;2023-10-19T00:05:37;8.52;;;6.13;;
19554;SDS011;9924;50.828;6.440;2023-10-19T00:08:04;9.23;;;6.55;;
19554;SDS011;9924;50.828;6.440;2023-10-19T00:10:40;10.25;;;7.03;;
19554;SDS011;9924;50.828;6.440;2023-10-19T00:13:08;9.80;;;6.78;;
19554;SDS011;9924;50.828;6.440;2023-10-19T00:15:38;9.88;;;7.13;;
19554;SDS011;9924;50.828;6.440;2023-10-19T00:18:16;8.68;;;6.78;;
19554;SDS011;9924;50.828;6.440;2023-10-19T00:20:48;8.80;;;6.53;;
19554;SDS011;9924;50.828;6.440;2023-10-19T00:23:19;11.77;;;6.45;;
19554;SDS011;9924;50.828;6.440;2023-10-19T00:26:00;9.20;;;6.97;;
19554;SDS011;9924;50.828;6.440;2023-10-19T00:28:33;8.98;;;6.82;;
19554;SDS011;9924;50.828;6.440;2023-10-19T00:31:01;10.77;;;7.32;;
19554;SDS011;9924;50.828;6.440;2023-10-19T00:33:33;8.27;;;6.28;;
19554;SDS011;9924;50.828;6.440;2023-10-19T00:36:04;7.93;;;6.38;;
19554;SDS011;9924;50.828;6.440;2023-10-19T00:38:36;10.98;;;6.05;;
19554;SDS011;9924;50.828;6.440;2023-10-19T00:41:04;8.40;;;6.53;;
19554;SDS011;9924;50.828;6.440;2023-10-19T00:43:36;8.27;;;6.18;;
19554;SDS011;9924;50.828;6.440;2023-10-19T00:46:11;10.82;;;6.43;;
19554;SDS011;9924;50.828;6.440;2023-10-19T00:48:48;7.63;;;5.93;;
19554;SDS011;9924;50.828;6.440;2023-10-19T00:51:18;9.50;;;6.30;;
19554;SDS011;9924;50.828;6.440;2023-10-19T00:54:00;8.25;;;5.88;;
19554;SDS011;9924;50.828;6.440;2023-10-19T00:56:34;8.07;;;6.10;;
19554;SDS011;9924;50.828;6.440;2023-10-19T00:59:03;6.70;;;5.25;;
19554;SDS011;9924;50.828;6.440;2023-10-19T01:01:46;8.88;;;5.20;;
19554;SDS011;9924;50.828;6.440;2023-10-19T01:04:15;8.88;;;5.90;;
19554;SDS011;9924;50.828;6.440;2023-10-19T01:06:48;8.13;;;5.88;;
19554;SDS011;9924;50.828;6.440;2023-10-19T01:09:35;10.93;;;7.55;;
19554;SDS011;9924;50.828;6.440;2023-10-19T01:12:02;8.95;;;6.35;;
19554;SDS011;9924;50.828;6.440;2023-10-19T01:17:38;11.25;;;6.50;;
19554;SDS011;9924;50.828;6.440;2023-10-19T01:20:09;10.07;;;6.35;;
19554;SDS011;9924;50.828;6.440;2023-10-19T01:23:00;7.75;;;6.10;;
19554;SDS011;9924;50.828;6.440;2023-10-19T01:25:43;8.95;;;5.88;;
19554;SDS011;9924;50.828;6.440;2023-10-19T01:28:22;7.47;;;5.85;;
19554;SDS011;9924;50.828;6.440;2023-10-19T01:31:07;9.02;;;6.55;;
19554;SDS011;9924;50.828;6.440;2023-10-19T01:33:34;8.40;;;6.20;;
19554;SDS011;9924;50.828;6.440;2023-10-19T01:36:00;7.57;;;5.30;;
19554;SDS011;9924;50.828;6.440;2023-10-19T01:38:35;7.97;;;5.22;;
19554;SDS011;9924;50.828;6.440;2023-10-19T01:41:02;7.53;;;5.13;;
19554;SDS011;9924;50.828;6.440;2023-10-19T01:43:38;6.20;;;4.60;;
19554;SDS011;9924;50.828;6.440;2023-10-19T01:46:10;7.60;;;4.65;;
19554;SDS011;9924;50.828;6.440;2023-10-19T01:48:47;9.40;;;5.47;;
19554;SDS011;9924;50.828;6.440;2023-10-19T01:51:15;6.93;;;4.78;;
19554;SDS011;9924;50.828;6.440;2023-10-19T01:53:41;5.95;;;4.97;;
19554;SDS011;9924;50.828;6.440;2023-10-19T01:56:10;6.20;;;4.63;;
19554;SDS011;9924;50.828;6.440;2023-10-19T01:58:38;6.40;;;4.70;;
19554;SDS011;9924;50.828;6.440;2023-10-19T02:01:08;6.85;;;4.63;;
19554;SDS011;9924;50.828;6.440;2023-10-19T02:03:38;6.50;;;5.13;;
19554;SDS011;9924;50.828;6.440;2023-10-19T02:06:07;8.80;;;5.13;;
19554;SDS011;9924;50.828;6.440;2023-10-19T02:11:14;9.10;;;5.18;;
19554;SDS011;9924;50.828;6.440;2023-10-19T02:13:46;6.97;;;4.90;;
19554;SDS011;9924;50.828;6.440;2023-10-19T02:16:13;7.07;;;4.35;;
19554;SDS011;9924;50.828;6.440;2023-10-19T02:18:43;7.28;;;4.75;;
19554;SDS011;9924;50.828;6.440;2023-10-19T02:21:09;6.35;;;3.83;;
19554;SDS011;9924;50.828;6.440;2023-10-19T02:23:38;6.45;;;4.30;;
19554;SDS011;9924;50.828;6.440;2023-10-19T02:26:05;6.95;;;3.65;;
19554;SDS011;9924;50.828;6.440;2023-10-19T02:28:30;6.10;;;4.18;;
19554;SDS011;9924;50.828;6.440;2023-10-19T02:30:57;7.97;;;4.22;;
19554;SDS011;9924;50.828;6.440;2023-10-19T02:33:36;5.13;;;3.53;;
19554;SDS011;9924;50.828;6.440;2023-10-19T02:36:02;6.90;;;3.90;;
19554;SDS011;9924;50.828;6.440;2023-10-19T02:38:29;6.40;;;3.78;;
19554;SDS011;9924;50.828;6.440;2023-10-19T02:40:55;8.95;;;3.17;;
19554;SDS011;9924;50.828;6.440;2023-10-19T02:43:21;4.63;;;2.88;;
19554;SDS011;9924;50.828;6.440;2023-10-19T02:45:49;6.20;;;3.00;;
19554;SDS011;9924;50.828;6.440;2023-10-19T02:48:17;5.90;;;2.80;;
19554;SDS011;9924;50.828;6.440;2023-10-19T02:50:43;4.68;;;2.45;;
19554;SDS011;9924;50.828;6.440;2023-10-19T02:53:08;3.75;;;2.30;;
19554;SDS011;9924;50.828;6.440;2023-10-19T02:55:38;4.40;;;2.42;;
19554;SDS011;9924;50.828;6.440;2023-10-19T02:58:05;3.78;;;2.17;;
19554;SDS011;9924;50.828;6.440;2023-10-19T03:00:31;3.90;;;2.42;;
19554;SDS011;9924;50.828;6.440;2023-10-19T03:03:01;5.03;;;2.35;;
19554;SDS011;9924;50.828;6.440;2023-10-19T03:05:30;4.35;;;2.00;;
19554;SDS011;9924;50.828;6.440;2023-10-19T03:07:56;4.25;;;2.08;;
19554;SDS011;9924;50.828;6.440;2023-10-19T03:10:22;4.47;;;1.90;;
19554;SDS011;9924;50.828;6.440;2023-10-19T03:12:52;3.15;;;1.83;;
19554;SDS011;9924;50.828;6.440;2023-10-19T03:15:18;2.45;;;1.90;;
19554;SDS011;9924;50.828;6.440;2023-10-19T03:17:47;5.72;;;2.40;;
19554;SDS011;9924;50.828;6.440;2023-10-19T03:20:13;3.33;;;2.38;;
19554;SDS011;9924;50.828;6.440;2023-10-19T03:22:42;6.97;;;2.53;;
19554;SDS011;9924;50.828;6.440;2023-10-19T03:25:08;3.58;;;2.35;;
19554;SDS011;9924;50.828;6.440;2023-10-19T03:27:54;6.25;;;2.22;;
19554;SDS011;9924;50.828;6.440;2023-10-19T03:30:21;3.00;;;1.95;;
19554;SDS011;9924;50.828;6.440;2023-10-19T03:32:50;2.80;;;1.90;;
19554;SDS011;9924;50.828;6.440;2023-10-19T03:35:16;5.32;;;1.83;;
19554;SDS011;9924;50.828;6.440;2023-10-19T03:37:41;3.22;;;1.90;;
19554;SDS011;9924;50.828;6.440;2023-10-19T03:40:08;4.30;;;1.60;;
19554;SDS011;9924;50.828;6.440;2023-10-19T03:42:39;5.22;;;1.95;;
19554;SDS011;9924;50.828;6.440;2023-10-19T03:45:11;4.07;;;2.17;;
19554;SDS011;9924;50.828;6.440;2023-10-19T03:47:40;3.78;;;1.80;;
19554;SDS011;9924;50.828;6.440;2023-10-19T03:50:09;4.35;;;1.50;;
19554;SDS011;9924;50.828;6.440;2023-10-19T03:52:40;4.70;;;1.50;;
19554;SDS011;9924;50.828;6.440;2023-10-19T03:55:06;6.70;;;1.50;;
19554;SDS011;9924;50.828;6.440;2023-10-19T03:57:36;3.70;;;1.67;;
19554;SDS011;9924;50.828;6.440;2023-10-19T04:00:05;2.47;;;1.60;;
19554;SDS011;9924;50.828;6.440;2023-10-19T04:02:40;6.15;;;2.15;;
19554;SDS011;9924;50.828;6.440;2023-10-19T04:05:07;4.05;;;1.95;;
19554;SDS011;9924;50.828;6.440;2023-10-19T04:07:40;4.65;;;1.63;;
19554;SDS011;9924;50.828;6.440;2023-10-19T04:10:07;2.10;;;1.60;;
19554;SDS011;9924;50.828;6.440;2023-10-19T04:12:39;3.78;;;1.55;;
19554;SDS011;9924;50.828;6.440;2023-10-19T04:15:09;5.22;;;1.60;;
19554;SDS011;9924;50.828;6.440;2023-10-19T04:17:40;5.47;;;1.70;;
19554;SDS011;9924;50.828;6.440;2023-10-19T04:20:15;2.08;;;1.63;;
19554;SDS011;9924;50.828;6.440;2023-10-19T04:22:45;4.28;;;1.83;;
19554;SDS011;9924;50.828;6.440;2023-10-19T04:25:13;5.22;;;1.75;;
19554;SDS011;9924;50.828;6.440;2023-10-19T04:27:44;6.88;;;1.95;;
19554;SDS011;9924;50.828;6.440;2023-10-19T04:30:11;5.40;;;2.10;;
19554;SDS011;9924;50.828;6.440;2023-10-19T04:32:47;4.47;;;1.50;;
19554;SDS011;9924;50.828;6.440;2023-10-19T04:35:17;6.50;;;2.70;;
19554;SDS011;9924;50.828;6.440;2023-10-19T04:37:47;4.90;;;1.50;;
19554;SDS011;9924;50.828;6.440;2023-10-19T04:40:22;4.85;;;1.73;;
19554;SDS011;9924;50.828;6.440;2023-10-19T04:42:51;5.93;;;2.08;;
19554;SDS011;9924;50.828;6.440;2023-10-19T04:45:17;3.30;;;1.85;;
19554;SDS011;9924;50.828;6.440;2023-10-19T04:47:43;4.28;;;1.70;;
19554;SDS011;9924;50.828;6.440;2023-10-19T04:50:09;4.38;;;1.70;;
19554;SDS011;9924;50.828;6.440;2023-10-19T04:52:36;5.88;;;1.55;;
19554;SDS011;9924;50.828;6.440;2023-10-19T04:55:01;4.45;;;1.65;;
19554;SDS011;9924;50.828;6.440;2023-10-19T04:57:27;5.07;;;2.50;;
19554;SDS011;9924;50.828;6.440;2023-10-19T04:59:53;5.10;;;2.83;;
19554;SDS011;9924;50.828;6.440;2023-10-19T05:02:20;8.50;;;3.08;;
19554;SDS011;9924;50.828;6.440;2023-10-19T05:04:46;8.75;;;4.00;;
19554;SDS011;9924;50.828;6.440;2023-10-19T05:07:12;8.48;;;3.65;;
19554;SDS011;9924;50.828;6.440;2023-10-19T05:09:42;5.25;;;2.70;;
19554;SDS011;9924;50.828;6.440;2023-10-19T05:12:08;4.57;;;2.90;;
19554;SDS011;9924;50.828;6.440;2023-10-19T05:14:35;6.30;;;1.98;;
19554;SDS011;9924;50.828;6.440;2023-10-19T05:17:01;8.15;;;2.63;;
19554;SDS011;9924;50.828;6.440;2023-10-19T05:19:33;5.97;;;2.30;;
19554;SDS011;9924;50.828;6.440;2023-10-19T05:22:00;6.07;;;2.80;;
19554;SDS011;9924;50.828;6.440;2023-10-19T05:24:27;7.05;;;2.60;;
19554;SDS011;9924;50.828;6.440;2023-10-19T05:26:53;5.75;;;2.55;;
19554;SDS011;9924;50.828;6.440;2023-10-19T05:29:22;6.45;;;2.38;;
19554;SDS011;9924;50.828;6.440;2023-10-19T05:31:51;8.13;;;2.67;;
19554;SDS011;9924;50.828;6.440;2023-10-19T05:34:23;8.23;;;2.53;;
19554;SDS011;9924;50.828;6.440;2023-10-19T05:36:51;7.70;;;3.33;;
19554;SDS011;9924;50.828;6.440;2023-10-19T05:39:19;9.00;;;3.63;;
19554;SDS011;9924;50.828;6.440;2023-10-19T05:41:53;6.35;;;3.03;;
19554;SDS011;9924;50.828;6.440;2023-10-19T05:44:19;5.10;;;3.08;;
19554;SDS011;9924;50.828;6.440;2023-10-19T05:46:45;7.47;;;2.78;;
19554;SDS011;9924;50.828;6.440;2023-10-19T05:49:12;7.13;;;3.03;;
19554;SDS011;9924;50.828;6.440;2023-10-19T05:51:38;7.43;;;3.20;;
19554;SDS011;9924;50.828;6.440;2023-10-19T05:54:04;7.32;;;2.63;;
19554;SDS011;9924;50.828;6.440;2023-10-19T05:56:33;6.45;;;2.58;;
19554;SDS011;9924;50.828;6.440;2023-10-19T05:58:59;7.00;;;2.33;;
19554;SDS011;9924;50.828;6.440;2023-10-19T06:01:26;5.53;;;2.67;;
19554;SDS011;9924;50.828;6.440;2023-10-19T06:03:52;7.80;;;3.17;;
19554;SDS011;9924;50.828;6.440;2023-10-19T06:06:20;6.07;;;2.47;;
19554;SDS011;9924;50.828;6.440;2023-10-19T06:08:46;6.95;;;2.78;;
19554;SDS011;9924;50.828;6.440;2023-10-19T06:11:12;3.88;;;2.45;;
19554;SDS011;9924;50.828;6.440;2023-10-19T06:13:38;10.57;;;2.40;;
19554;SDS011;9924;50.828;6.440;2023-10-19T06:16:04;4.13;;;2.45;;
19554;SDS011;9924;50.828;6.440;2023-10-19T06:18:30;5.28;;;2.45;;
19554;SDS011;9924;50.828;6.440;2023-10-19T06:20:56;6.53;;;2.80;;
19554;SDS011;9924;50.828;6.440;2023-10-19T06:23:22;5.55;;;2.53;;
19554;SDS011;9924;50.828;6.440;2023-10-19T06:25:48;7.43;;;2.60;;
19554;SDS011;9924;50.828;6.440;2023-10-19T06:28:16;7.25;;;2.55;;
19554;SDS011;9924;50.828;6.440;2023-10-19T06:30:42;7.47;;;3.20;;
19554;SDS011;9924;50.828;6.440;2023-10-19T06:33:08;7.68;;;2.70;;
19554;SDS011;9924;50.828;6.440;2023-10-19T06:35:34;7.72;;;3.05;;
19554;SDS011;9924;50.828;6.440;2023-10-19T06:38:02;5.85;;;3.45;;
19554;SDS011;9924;50.828;6.440;2023-10-19T06:40:34;8.10;;;3.35;;
19554;SDS011;9924;50.828;6.440;2023-10-19T06:43:03;6.35;;;3.25;;
19554;SDS011;9924;50.828;6.440;2023-10-19T06:45:30;6.90;;;3.30;;
19554;SDS011;9924;50.828;6.440;2023-10-19T06:47:57;9.13;;;4.15;;
19554;SDS011;9924;50.828;6.440;2023-10-19T06:50:26;11.80;;;4.40;;
19554;SDS011;9924;50.828;6.440;2023-10-19T06:52:52;9.30;;;4.03;;
19554;SDS011;9924;50.828;6.440;2023-10-19T06:55:19;6.70;;;3.70;;
19554;SDS011;9924;50.828;6.440;2023-10-19T06:57:52;11.35;;;4.43;;
19554;SDS011;9924;50.828;6.440;2023-10-19T07:00:21;10.82;;;5.47;;
19554;SDS011;9924;50.828;6.440;2023-10-19T07:02:49;7.88;;;3.97;;
19554;SDS011;9924;50.828;6.440;2023-10-19T07:05:16;6.82;;;3.90;;
19554;SDS011;9924;50.828;6.440;2023-10-19T07:08:01;7.13;;;3.25;;
19554;SDS011;9924;50.828;6.440;2023-10-19T07:10:28;5.95;;;3.40;;
19554;SDS011;9924;50.828;6.440;2023-10-19T07:12:54;8.07;;;3.72;;
19554;SDS011;9924;50.828;6.440;2023-10-19T07:15:23;5.80;;;3.22;;
19554;SDS011;9924;50.828;6.440;2023-10-19T07:17:50;7.40;;;3.92;;
19554;SDS011;9924;50.828;6.440;2023-10-19T07:20:19;7.60;;;3.83;;
19554;SDS011;9924;50.828;6.440;2023-10-19T07:22:56;7.70;;;3.80;;
19554;SDS011;9924;50.828;6.440;2023-10-19T07:25:30;8.50;;;3.55;;
19554;SDS011;9924;50.828;6.440;2023-10-19T07:27:56;10.35;;;4.30;;
19554;SDS011;9924;50.828;6.440;2023-10-19T07:30:25;9.35;;;3.75;;
19554;SDS011;9924;50.828;6.440;2023-10-19T07:32:53;15.07;;;4.43;;
19554;SDS011;9924;50.828;6.440;2023-10-19T07:35:21;11.40;;;4.70;;
19554;SDS011;9924;50.828;6.440;2023-10-19T07:37:48;8.98;;;4.60;;
19554;SDS011;9924;50.828;6.440;2023-10-19T07:40:15;10.57;;;4.32;;
19554;SDS011;9924;50.828;6.440;2023-10-19T07:42:42;9.65;;;4.95;;
19554;SDS011;9924;50.828;6.440;2023-10-19T07:45:09;7.22;;;4.38;;
19554;SDS011;9924;50.828;6.440;2023-10-19T07:47:38;8.43;;;3.67;;
19554;SDS011;9924;50.828;6.440;2023-10-19T07:50:08;8.80;;;3.50;;
19554;SDS011;9924;50.828;6.440;2023-10-19T07:52:44;5.63;;;2.67;;
19554;SDS011;9924;50.828;6.440;2023-10-19T07:55:12;9.43;;;3.13;;
19554;SDS011;9924;50.828;6.440;2023-10-19T07:57:39;7.97;;;3.33;;
19554;SDS011;9924;50.828;6.440;2023-10-19T08:00:11;9.48;;;3.88;;
19554;SDS011;9924;50.828;6.440;2023-10-19T08:02:41;11.50;;;3.25;;
19554;SDS011;9924;50.828;6.440;2023-10-19T08:05:08;12.98;;;3.20;;
19554;SDS011;9924;50.828;6.440;2023-10-19T08:07:36;12.68;;;3.55;;
19554;SDS011;9924;50.828;6.440;2023-10-19T08:10:06;9.20;;;3.10;;
19554;SDS011;9924;50.828;6.440;2023-10-19T08:12:34;7.78;;;2.60;;
19554;SDS011;9924;50.828;6.440;2023-10-19T08:15:02;10.43;;;2.60;;
19554;SDS011;9924;50.828;6.440;2023-10-19T08:17:29;8.00;;;3.03;;
19554;SDS011;9924;50.828;6.440;2023-10-19T08:19:55;7.82;;;2.42;;
19554;SDS011;9924;50.828;6.440;2023-10-19T08:22:22;8.13;;;2.78;;
19554;SDS011;9924;50.828;6.440;2023-10-19T08:24:49;12.30;;;3.25;;
19554;SDS011;9924;50.828;6.440;2023-10-19T08:27:17;9.82;;;3.85;;
19554;SDS011;9924;50.828;6.440;2023-10-19T08:29:43;7.72;;;2.47;;
19554;SDS011;9924;50.828;6.440;2023-10-19T08:32:11;8.32;;;3.15;;
19554;SDS011;9924;50.828;6.440;2023-10-19T08:34:39;9.88;;;2.33;;
19554;SDS011;9924;50.828;6.440;2023-10-19T08:37:06;10.63;;;2.40;;
19554;SDS011;9924;50.828;6.440;2023-10-19T08:39:32;12.63;;;2.55;;
19554;SDS011;9924;50.828;6.440;2023-10-19T08:42:02;9.35;;;3.00;;
19554;SDS011;9924;50.828;6.440;2023-10-19T08:44:29;8.82;;;2.63;;
19554;SDS011;9924;50.828;6.440;2023-10-19T08:46:56;5.45;;;2.08;;
19554;SDS011;9924;50.828;6.440;2023-10-19T08:49:25;5.60;;;1.83;;
19554;SDS011;9924;50.828;6.440;2023-10-19T08:51:54;8.82;;;1.90;;
19554;SDS011;9924;50.828;6.440;2023-10-19T08:54:24;6.43;;;2.40;;
19554;SDS011;9924;50.828;6.440;2023-10-19T08:56:51;10.05;;;1.90;;
19554;SDS011;9924;50.828;6.440;2023-10-19T08:59:17;6.15;;;1.70;;
19554;SDS011;9924;50.828;6.440;2023-10-19T09:01:43;6.15;;;1.90;;
19554;SDS011;9924;50.828;6.440;2023-10-19T09:04:12;7.78;;;1.60;;
19554;SDS011;9924;50.828;6.440;2023-10-19T09:06:39;6.47;;;1.80;;
19554;SDS011;9924;50.828;6.440;2023-10-19T09:09:10;7.97;;;1.65;;
19554;SDS011;9924;50.828;6.440;2023-10-19T09:11:47;4.75;;;1.27;;
19554;SDS011;9924;50.828;6.440;2023-10-19T09:14:14;4.88;;;1.70;;
19554;SDS011;9924;50.828;6.440;2023-10-19T09:16:55;6.10;;;1.50;;
19554;SDS011;9924;50.828;6.440;2023-10-19T09:22:09;9.50;;;1.58;;
19554;SDS011;9924;50.828;6.440;2023-10-19T09:24:50;6.18;;;1.60;;
19554;SDS011;9924;50.828;6.440;2023-10-19T09:27:20;6.20;;;1.70;;
19554;SDS011;9924;50.828;6.440;2023-10-19T09:29:47;6.00;;;1.50;;
19554;SDS011;9924;50.828;6.440;2023-10-19T09:32:13;11.90;;;1.60;;
19554;SDS011;9924;50.828;6.440;2023-10-19T09:34:40;9.55;;;1.88;;
19554;SDS011;9924;50.828;6.440;2023-10-19T09:37:09;8.10;;;1.70;;
19554;SDS011;9924;50.828;6.440;2023-10-19T09:39:36;9.70;;;1.52;;
19554;SDS011;9924;50.828;6.440;2023-10-19T09:42:05;6.97;;;1.83;;
19554;SDS011;9924;50.828;6.440;2023-10-19T09:45:18;6.57;;;1.80;;
19554;SDS011;9924;50.828;6.440;2023-10-19T09:47:31;7.15;;;1.60;;
19554;SDS011;9924;50.828;6.440;2023-10-19T09:50:01;7.53;;;1.83;;
19554;SDS011;9924;50.828;6.440;2023-10-19T09:52:28;9.00;;;1.67;;
19554;SDS011;9924;50.828;6.440;2023-10-19T10:00:21;9.15;;;1.52;;
19554;SDS011;9924;50.828;6.440;2023-10-19T10:02:52;7.75;;;1.30;;
19554;SDS011;9924;50.828;6.440;2023-10-19T10:10:45;15.98;;;1.50;;
19554;SDS011;9924;50.828;6.440;2023-10-19T10:15:54;5.68;;;1.20;;
19554;SDS011;9924;50.828;6.440;2023-10-19T10:18:32;7.75;;;2.38;;
19554;SDS011;9924;50.828;6.440;2023-10-19T10:21:13;8.18;;;1.48;;
19554;SDS011;9924;50.828;6.440;2023-10-19T10:23:43;10.90;;;1.67;;
19554;SDS011;9924;50.828;6.440;2023-10-19T10:26:23;5.20;;;1.40;;
19554;SDS011;9924;50.828;6.440;2023-10-19T10:29:14;5.85;;;1.48;;
19554;SDS011;9924;50.828;6.440;2023-10-19T10:31:47;7.30;;;1.50;;
19554;SDS011;9924;50.828;6.440;2023-10-19T10:34:59;5.07;;;1.50;;
19554;SDS011;9924;50.828;6.440;2023-10-19T10:37:03;5.45;;;1.17;;
19554;SDS011;9924;50.828;6.440;2023-10-19T10:39:34;6.85;;;1.15;;
19554;SDS011;9924;50.828;6.440;2023-10-19T10:42:04;6.65;;;1.90;;
19554;SDS011;9924;50.828;6.440;2023-10-19T10:47:08;6.20;;;1.25;;
19554;SDS011;9924;50.828;6.440;2023-10-19T10:52:24;6.28;;;1.48;;
19554;SDS011;9924;50.828;6.440;2023-10-19T10:54:57;4.57;;;1.30;;
19554;SDS011;9924;50.828;6.440;2023-10-19T10:57:30;7.50;;;1.67;;
19554;SDS011;9924;50.828;6.440;2023-10-19T11:00:00;7.47;;;1.60;;
19554;SDS011;9924;50.828;6.440;2023-10-19T11:02:29;5.97;;;1.48;;
19554;SDS011;9924;50.828;6.440;2023-10-19T11:04:55;9.02;;;1.77;;
19554;SDS011;9924;50.828;6.440;2023-10-19T11:07:20;9.20;;;1.70;;
19554;SDS011;9924;50.828;6.440;2023-10-19T11:09:46;5.22;;;1.52;;
19554;SDS011;9924;50.828;6.440;2023-10-19T11:12:13;8.65;;;1.63;;
19554;SDS011;9924;50.828;6.440;2023-10-19T11:14:53;5.03;;;1.60;;
19554;SDS011;9924;50.828;6.440;2023-10-19T11:17:20;6.47;;;1.75;;
19554;SDS011;9924;50.828;6.440;2023-10-19T11:19:53;8.00;;;1.42;;
19554;SDS011;9924;50.828;6.440;2023-10-19T11:22:22;11.27;;;1.65;;
19554;SDS011;9924;50.828;6.440;2023-10-19T11:24:50;7.63;;;1.75;;
19554;SDS011;9924;50.828;6.440;2023-10-19T11:27:26;7.60;;;1.77;;
19554;SDS011;9924;50.828;6.440;2023-10-19T11:29:59;9.02;;;1.20;;
19554;SDS011;9924;50.828;6.440;2023-10-19T11:32:38;9.77;;;1.73;;
19554;SDS011;9924;50.828;6.440;2023-10-19T11:35:05;5.85;;;1.25;;
19554;SDS011;9924;50.828;6.440;2023-10-19T11:37:50;6.03;;;1.75;;
19554;SDS011;9924;50.828;6.440;2023-10-19T11:40:20;5.55;;;1.25;;
19554;SDS011;9924;50.828;6.440;2023-10-19T11:42:47;4.80;;;1.63;;
19554;SDS011;9924;50.828;6.440;2023-10-19T11:45:17;8.20;;;2.15;;
19554;SDS011;9924;50.828;6.440;2023-10-19T11:47:44;7.88;;;1.67;;
19554;SDS011;9924;50.828;6.440;2023-10-19T11:50:10;7.57;;;1.45;;
19554;SDS011;9924;50.828;6.440;2023-10-19T11:52:41;6.60;;;1.50;;
19554;SDS011;9924;50.828;6.440;2023-10-19T11:55:08;6.95;;;1.58;;
19554;SDS011;9924;50.828;6.440;2023-10-19T11:57:34;9.07;;;1.50;;
19554;SDS011;9924;50.828;6.440;2023-10-19T12:00:01;6.32;;;1.92;;
19554;SDS011;9924;50.828;6.440;2023-10-19T12:02:39;7.32;;;1.63;;
19554;SDS011;9924;50.828;6.440;2023-10-19T12:05:07;7.35;;;1.83;;
19554;SDS011;9924;50.828;6.440;2023-10-19T12:07:39;7.28;;;1.48;;
19554;SDS011;9924;50.828;6.440;2023-10-19T12:10:08;7.90;;;1.30;;
19554;SDS011;9924;50.828;6.440;2023-10-19T12:12:38;6.88;;;2.22;;
19554;SDS011;9924;50.828;6.440;2023-10-19T12:15:04;7.18;;;1.40;;
19554;SDS011;9924;50.828;6.440;2023-10-19T12:17:31;8.32;;;1.70;;
19554;SDS011;9924;50.828;6.440;2023-10-19T12:19:57;6.75;;;1.20;;
19554;SDS011;9924;50.828;6.440;2023-10-19T12:22:22;8.27;;;1.52;;
19554;SDS011;9924;50.828;6.440;2023-10-19T12:24:49;6.50;;;1.60;;
19554;SDS011;9924;50.828;6.440;2023-10-19T12:27:16;10.80;;;1.40;;
19554;SDS011;9924;50.828;6.440;2023-10-19T12:29:43;6.13;;;1.42;;
19554;SDS011;9924;50.828;6.440;2023-10-19T12:32:09;4.88;;;1.30;;
19554;SDS011;9924;50.828;6.440;2023-10-19T12:34:40;4.78;;;1.52;;
19554;SDS011;9924;50.828;6.440;2023-10-19T12:37:06;4.90;;;2.20;;
19554;SDS011;9924;50.828;6.440;2023-10-19T12:39:35;9.30;;;1.75;;
19554;SDS011;9924;50.828;6.440;2023-10-19T12:42:03;6.88;;;1.70;;
19554;SDS011;9924;50.828;6.440;2023-10-19T12:44:29;7.45;;;1.60;;
19554;SDS011;9924;50.828;6.440;2023-10-19T12:46:57;7.55;;;1.90;;
19554;SDS011;9924;50.828;6.440;2023-10-19T12:49:24;5.57;;;1.63;;
19554;SDS011;9924;50.828;6.440;2023-10-19T12:51:51;7.50;;;1.88;;
19554;SDS011;9924;50.828;6.440;2023-10-19T12:54:17;8.98;;;2.25;;
19554;SDS011;9924;50.828;6.440;2023-10-19T12:56:44;5.68;;;1.60;;
19554;SDS011;9924;50.828;6.440;2023-10-19T12:59:10;7.22;;;1.65;;
19554;SDS011;9924;50.828;6.440;2023-10-19T13:01:36;5.10;;;1.38;;
19554;SDS011;9924;50.828;6.440;2023-10-19T13:04:02;4.78;;;1.25;;
19554;SDS011;9924;50.828;6.440;2023-10-19T13:06:39;4.18;;;1.15;;
19554;SDS011;9924;50.828;6.440;2023-10-19T13:09:05;6.05;;;1.40;;
19554;SDS011;9924;50.828;6.440;2023-10-19T13:11:34;4.78;;;1.65;;
19554;SDS011;9924;50.828;6.440;2023-10-19T13:14:01;4.72;;;1.60;;
19554;SDS011;9924;50.828;6.440;2023-10-19T13:16:27;6.18;;;1.83;;
19554;SDS011;9924;50.828;6.440;2023-10-19T13:18:53;7.50;;;1.50;;
19554;SDS011;9924;50.828;6.440;2023-10-19T13:21:19;12.57;;;1.67;;
19554;SDS011;9924;50.828;6.440;2023-10-19T13:23:52;9.02;;;1.80;;
19554;SDS011;9924;50.828;6.440;2023-10-19T13:26:18;6.75;;;1.63;;
19554;SDS011;9924;50.828;6.440;2023-10-19T13:28:45;5.72;;;2.67;;
19554;SDS011;9924;50.828;6.440;2023-10-19T13:31:12;6.10;;;1.80;;
19554;SDS011;9924;50.828;6.440;2023-10-19T13:33:41;3.38;;;1.48;;
19554;SDS011;9924;50.828;6.440;2023-10-19T13:36:09;4.18;;;1.77;;
19554;SDS011;9924;50.828;6.440;2023-10-19T13:38:34;5.95;;;1.80;;
19554;SDS011;9924;50.828;6.440;2023-10-19T13:41:06;6.85;;;2.00;;
19554;SDS011;9924;50.828;6.440;2023-10-19T13:43:36;6.90;;;1.88;;
19554;SDS011;9924;50.828;6.440;2023-10-19T13:46:02;8.77;;;1.88;;
19554;SDS011;9924;50.828;6.440;2023-10-19T13:48:30;7.22;;;1.70;;
19554;SDS011;9924;50.828;6.440;2023-10-19T13:50:57;5.10;;;1.80;;
19554;SDS011;9924;50.828;6.440;2023-10-19T13:53:30;7.13;;;1.83;;
19554;SDS011;9924;50.828;6.440;2023-10-19T13:55:56;7.85;;;2.33;;
19554;SDS011;9924;50.828;6.440;2023-10-19T13:58:22;6.68;;;2.42;;
19554;SDS011;9924;50.828;6.440;2023-10-19T14:00:48;8.48;;;2.42;;
19554;SDS011;9924;50.828;6.440;2023-10-19T14:03:14;5.63;;;1.60;;
19554;SDS011;9924;50.828;6.440;2023-10-19T14:05:44;4.65;;;1.70;;
19554;SDS011;9924;50.828;6.440;2023-10-19T14:08:14;4.63;;;2.28;;
19554;SDS011;9924;50.828;6.440;2023-10-19T14:10:43;4.55;;;2.50;;
19554;SDS011;9924;50.828;6.440;2023-10-19T14:13:09;5.72;;;2.22;;
19554;SDS011;9924;50.828;6.440;2023-10-19T14:15:40;4.28;;;2.17;;
19554;SDS011;9924;50.828;6.440;2023-10-19T14:18:07;4.32;;;2.10;;
19554;SDS011;9924;50.828;6.440;2023-10-19T14:20:34;9.07;;;2.45;;
19554;SDS011;9924;50.828;6.440;2023-10-19T14:23:03;4.10;;;2.40;;
19554;SDS011;9924;50.828;6.440;2023-10-19T14:25:30;5.82;;;2.53;;
19554;SDS011;9924;50.828;6.440;2023-10-19T14:27:56;6.35;;;2.40;;
19554;SDS011;9924;50.828;6.440;2023-10-19T14:30:25;7.55;;;2.50;;
19554;SDS011;9924;50.828;6.440;2023-10-19T14:32:53;8.23;;;2.72;;
19554;SDS011;9924;50.828;6.440;2023-10-19T14:35:20;5.93;;;2.28;;
19554;SDS011;9924;50.828;6.440;2023-10-19T14:37:48;10.50;;;2.25;;
19554;SDS011;9924;50.828;6.440;2023-10-19T14:40:19;7.68;;;2.78;;
19554;SDS011;9924;50.828;6.440;2023-10-19T14:42:46;6.00;;;2.40;;
19554;SDS011;9924;50.828;6.440;2023-10-19T14:45:14;5.45;;;2.50;;
19554;SDS011;9924;50.828;6.440;2023-10-19T14:47:44;8.00;;;3.00;;
19554;SDS011;9924;50.828;6.440;2023-10-19T14:50:17;7.18;;;3.33;;
19554;SDS011;9924;50.828;6.440;2023-10-19T14:52:44;7.60;;;3.38;;
19554;SDS011;9924;50.828;6.440;2023-10-19T14:55:12;3.90;;;2.65;;
19554;SDS011;9924;50.828;6.440;2023-10-19T14:57:41;5.97;;;2.75;;
19554;SDS011;9924;50.828;6.440;2023-10-19T15:00:09;6.25;;;2.88;;
19554;SDS011;9924;50.828;6.440;2023-10-19T15:02:48;6.68;;;2.33;;
19554;SDS011;9924;50.828;6.440;2023-10-19T15:05:19;4.85;;;2.78;;
19554;SDS011;9924;50.828;6.440;2023-10-19T15:07:46;8.80;;;3.38;;
19554;SDS011;9924;50.828;6.440;2023-10-19T15:10:20;5.90;;;3.28;;
19554;SDS011;9924;50.828;6.440;2023-10-19T15:12:51;6.47;;;3.20;;
19554;SDS011;9924;50.828;6.440;2023-10-19T15:15:17;9.38;;;3.30;;
19554;SDS011;9924;50.828;6.440;2023-10-19T15:17:43;7.43;;;3.50;;
19554;SDS011;9924;50.828;6.440;2023-10-19T15:20:10;5.25;;;3.53;;
19554;SDS011;9924;50.828;6.440;2023-10-19T15:22:43;7.68;;;3.58;;
19554;SDS011;9924;50.828;6.440;2023-10-19T15:25:10;6.90;;;3.35;;
19554;SDS011;9924;50.828;6.440;2023-10-19T15:27:39;8.60;;;3.28;;
19554;SDS011;9924;50.828;6.440;2023-10-19T15:30:06;7.75;;;3.53;;
19554;SDS011;9924;50.828;6.440;2023-10-19T15:32:34;6.35;;;3.53;;
19554;SDS011;9924;50.828;6.440;2023-10-19T15:35:01;7.90;;;3.67;;
19554;SDS011;9924;50.828;6.440;2023-10-19T15:37:27;6.82;;;3.42;;
19554;SDS011;9924;50.828;6.440;2023-10-19T15:39:53;7.53;;;3.70;;